Time;durP1;ratioP1;P1;durP2;ratioP2;P2;SDS_P1;SDS_P2;PMS_P1;PMS_P2;Temp;Humidity;BMP_temperature;BMP_pressure;BME280_temperature;BME280_humidity;BME280_pressure;Samples;Min_cycle;Max_cycle;Signal;HPM_P1;HPM_P2
2022/11/05 00:16:57;;;;;;;13.30;6.63;;;10.30;99.90;;;;;;5100689;28;20266;-33
2022/11/05 00:19:25;;;;;;;8.17;5.63;;;10.30;99.90;;;;;;5092141;28;20203;-32
2022/11/05 00:27:27;;;;;;;7.03;5.40;;;10.20;99.90;;;;;;5086692;28;20198;-32
2022/11/05 00:29:54;;;;;;;8.27;5.67;;;10.20;99.90;;;;;;5103704;28;20205;-32
2022/11/05 00:32:21;;;;;;;9.97;6.30;;;10.20;99.90;;;;;;5098572;28;20700;-32
2022/11/05 00:34:48;;;;;;;10.23;5.73;;;10.20;99.90;;;;;;5088777;28;20573;-32
2022/11/05 00:37:18;;;;;;;12.03;5.60;;;10.20;99.90;;;;;;5085009;28;20750;-32
2022/11/05 00:39:47;;;;;;;7.67;5.07;;;10.20;99.90;;;;;;5089510;28;20256;-32
2022/11/05 00:45:00;;;;;;;8.13;5.20;;;10.10;99.90;;;;;;5087257;28;20242;-32
2022/11/05 00:50:17;;;;;;;10.63;4.83;;;10.10;99.90;;;;;;5100512;28;20244;-32
2022/11/05 00:52:55;;;;;;;7.33;4.40;;;10.10;99.90;;;;;;5078601;28;20230;-33
2022/11/05 00:55:37;;;;;;;8.60;5.30;;;10.10;99.90;;;;;;5088306;28;20202;-32
2022/11/05 00:58:08;;;;;;;9.47;4.87;;;10.10;99.90;;;;;;5096527;28;20301;-31
2022/11/05 01:00:44;;;;;;;9.57;4.10;;;10.10;99.90;;;;;;5083205;28;20245;-32
2022/11/05 01:03:16;;;;;;;6.37;4.03;;;10.10;99.90;;;;;;5086975;28;20201;-31
2022/11/05 01:05:48;;;;;;;7.83;4.40;;;10.10;99.90;;;;;;5091488;28;20210;-32
2022/11/05 01:08:18;;;;;;;5.07;3.67;;;10.10;99.90;;;;;;5102014;28;20202;-31
2022/11/05 01:10:49;;;;;;;10.87;5.00;;;10.10;99.90;;;;;;5091513;28;20717;-33
2022/11/05 01:13:22;;;;;;;9.43;3.90;;;10.10;99.90;;;;;;5084187;28;20206;-32
2022/11/05 01:15:53;;;;;;;5.53;3.27;;;10.10;99.90;;;;;;5081398;28;20587;-31
2022/11/05 01:18:23;;;;;;;5.87;3.23;;;10.10;99.90;;;;;;5094005;28;20302;-31
2022/11/05 01:20:55;;;;;;;7.70;3.80;;;10.00;99.90;;;;;;5090039;28;20238;-31
2022/11/05 01:23:22;;;;;;;5.93;3.53;;;10.00;99.90;;;;;;5089411;28;20194;-32
2022/11/05 01:25:49;;;;;;;5.60;3.40;;;10.10;99.90;;;;;;5079969;28;20219;-32
2022/11/05 01:28:18;;;;;;;7.73;3.50;;;10.00;99.90;;;;;;5086055;28;20210;-33
2022/11/05 01:30:54;;;;;;;5.80;3.87;;;10.00;99.90;;;;;;5090112;28;20201;-32
2022/11/05 01:33:21;;;;;;;6.23;3.70;;;10.00;99.90;;;;;;5097952;28;20288;-32
2022/11/05 01:35:50;;;;;;;6.40;3.67;;;10.00;99.90;;;;;;5088381;28;20560;-32
2022/11/05 01:38:20;;;;;;;5.00;3.50;;;10.00;99.90;;;;;;5084792;28;20567;-33
2022/11/05 01:40:47;;;;;;;6.20;3.80;;;10.00;99.90;;;;;;5087626;28;20308;-32
2022/11/05 01:43:20;;;;;;;6.70;2.93;;;10.00;99.90;;;;;;5104229;28;20197;-32
2022/11/05 01:45:51;;;;;;;7.43;3.83;;;10.00;99.90;;;;;;5095055;28;20783;-33
2022/11/05 01:48:28;;;;;;;10.80;3.90;;;9.90;99.90;;;;;;5089642;28;20673;-32
2022/11/05 01:51:08;;;;;;;5.80;3.60;;;9.90;99.90;;;;;;5103282;28;20801;-33
2022/11/05 01:53:40;;;;;;;5.17;3.27;;;9.90;99.90;;;;;;5095052;28;20206;-31
2022/11/05 01:56:16;;;;;;;5.63;3.40;;;9.80;99.90;;;;;;5099939;28;20198;-32
2022/11/05 01:58:44;;;;;;;7.43;3.90;;;9.80;99.90;;;;;;5089945;28;20198;-31
2022/11/05 02:01:11;;;;;;;5.43;3.40;;;9.80;99.90;;;;;;5094613;28;20253;-31
2022/11/05 02:03:41;;;;;;;8.47;3.07;;;9.80;99.90;;;;;;5105182;28;20201;-31
2022/11/05 02:06:10;;;;;;;8.10;3.17;;;9.80;99.90;;;;;;5087084;28;20191;-32
2022/11/05 02:09:04;;;;;;;7.10;3.57;;;9.70;99.90;;;;;;5083455;28;20430;-32
2022/11/05 02:11:32;;;;;;;6.10;3.40;;;9.70;99.90;;;;;;5093701;28;20198;-32
2022/11/05 02:13:59;;;;;;;4.33;2.63;;;9.70;99.90;;;;;;5100584;28;20234;-32
2022/11/05 02:16:47;;;;;;;6.47;3.63;;;9.70;99.90;;;;;;5089303;28;20203;-33
2022/11/05 02:19:32;;;;;;;5.07;3.43;;;9.60;99.90;;;;;;5090876;28;20219;-32
2022/11/05 02:22:26;;;;;;;7.17;3.47;;;9.60;99.90;;;;;;5104369;28;20294;-33
2022/11/05 02:25:20;;;;;;;5.47;3.03;;;9.60;99.90;;;;;;5092697;28;20202;-32
2022/11/05 02:28:02;;;;;;;4.67;3.40;;;9.50;99.90;;;;;;5096587;28;20594;-33
2022/11/05 02:30:50;;;;;;;5.57;3.33;;;9.50;99.90;;;;;;5101273;28;20205;-33
2022/11/05 02:33:29;;;;;;;7.03;3.47;;;9.50;99.90;;;;;;5085260;28;20208;-33
2022/11/05 02:36:20;;;;;;;7.93;3.53;;;9.50;99.90;;;;;;5100952;28;20200;-31
2022/11/05 02:39:02;;;;;;;7.53;3.57;;;9.50;99.90;;;;;;5098350;28;20213;-32
2022/11/05 02:41:57;;;;;;;5.17;3.47;;;9.40;99.90;;;;;;5096428;28;20701;-33
2022/11/05 02:44:55;;;;;;;6.37;3.60;;;9.40;99.90;;;;;;5093660;28;20578;-34
2022/11/05 02:47:46;;;;;;;7.43;3.60;;;9.40;99.90;;;;;;5088389;28;20631;-33
2022/11/05 02:50:35;;;;;;;4.33;3.40;;;9.30;99.90;;;;;;5085865;28;20784;-32
2022/11/05 02:53:10;;;;;;;5.23;3.40;;;9.30;99.90;;;;;;5089652;28;20509;-32
2022/11/05 02:55:43;;;;;;;6.80;3.60;;;9.30;99.90;;;;;;5086536;28;20199;-32
2022/11/05 02:58:13;;;;;;;9.40;3.70;;;9.30;99.90;;;;;;5086809;28;20199;-32
2022/11/05 03:00:51;;;;;;;9.13;3.83;;;9.20;99.90;;;;;;5087701;28;20582;-32
2022/11/05 03:03:46;;;;;;;6.00;4.07;;;9.20;99.90;;;;;;5101559;28;20694;-32
2022/11/05 03:06:22;;;;;;;8.77;4.20;;;9.20;99.90;;;;;;5081336;28;20205;-33
2022/11/05 03:08:57;;;;;;;9.63;4.17;;;9.20;99.90;;;;;;5096317;28;20660;-33
2022/11/05 03:11:27;;;;;;;6.40;4.03;;;9.20;99.90;;;;;;5085496;28;20614;-32
2022/11/05 03:14:23;;;;;;;6.20;3.87;;;9.10;99.90;;;;;;5088869;28;20916;-32
2022/11/05 03:17:12;;;;;;;7.07;3.67;;;9.10;99.90;;;;;;5092979;28;20211;-33
2022/11/05 03:19:56;;;;;;;8.73;4.13;;;9.10;99.90;;;;;;5084456;28;20237;-32
2022/11/05 03:22:28;;;;;;;8.27;4.30;;;9.00;99.90;;;;;;5098523;28;20329;-31
2022/11/05 03:25:02;;;;;;;6.27;3.80;;;9.00;99.90;;;;;;5093138;28;20203;-32
2022/11/05 03:27:33;;;;;;;8.37;4.30;;;9.00;99.90;;;;;;5081046;28;20232;-32
2022/11/05 03:30:10;;;;;;;8.53;4.30;;;8.90;99.90;;;;;;5088293;28;20700;-32
2022/11/05 03:32:45;;;;;;;8.63;4.53;;;8.90;99.90;;;;;;5102375;28;20255;-32
2022/11/05 03:35:23;;;;;;;7.47;4.17;;;8.90;99.90;;;;;;5096910;28;20747;-33
2022/11/05 03:37:55;;;;;;;7.13;4.40;;;8.90;99.90;;;;;;5093174;28;20209;-32
2022/11/05 03:40:24;;;;;;;10.70;4.90;;;8.90;99.90;;;;;;5096907;28;20677;-32
2022/11/05 03:42:55;;;;;;;8.23;4.87;;;8.80;99.90;;;;;;5099579;28;20211;-31
2022/11/05 03:45:29;;;;;;;9.97;5.50;;;8.80;99.90;;;;;;5086297;28;20483;-33
2022/11/05 03:48:00;;;;;;;6.53;4.60;;;8.80;99.90;;;;;;5094445;28;20205;-33
2022/11/05 03:50:45;;;;;;;8.57;4.70;;;8.80;99.90;;;;;;5099856;28;20664;-32
2022/11/05 03:53:21;;;;;;;9.00;5.60;;;8.80;99.90;;;;;;5085749;28;20216;-32
2022/11/05 03:56:08;;;;;;;7.70;4.57;;;8.80;99.90;;;;;;5087148;28;20660;-32
2022/11/05 03:58:38;;;;;;;9.57;4.90;;;8.80;99.90;;;;;;5096309;28;20193;-32
2022/11/05 04:01:05;;;;;;;7.93;5.60;;;8.70;99.90;;;;;;5095829;28;20214;-32
2022/11/05 04:03:35;;;;;;;7.13;5.10;;;8.70;99.90;;;;;;5086425;28;20558;-32
2022/11/05 04:14:28;;;;;;;12.47;6.00;;;8.60;99.90;;;;;;5102546;28;20209;-32
2022/11/05 04:17:10;;;;;;;7.70;5.37;;;8.60;99.90;;;;;;5086901;28;20574;-33
2022/11/05 04:25:19;;;;;;;7.87;5.90;;;8.60;99.90;;;;;;5087840;28;20305;-32
2022/11/05 04:27:47;;;;;;;11.13;6.33;;;8.60;99.90;;;;;;5095067;28;20191;-33
2022/11/05 04:30:20;;;;;;;11.60;5.77;;;8.60;99.90;;;;;;5085727;28;20202;-32
2022/11/05 04:32:58;;;;;;;11.80;6.03;;;8.50;99.90;;;;;;5086571;28;20209;-31
2022/11/05 04:35:27;;;;;;;10.07;6.10;;;8.50;99.90;;;;;;5100766;28;20236;-32
2022/11/05 04:37:54;;;;;;;14.83;6.60;;;8.50;99.90;;;;;;5090581;28;20551;-32
2022/11/05 04:40:22;;;;;;;10.40;6.40;;;8.40;99.90;;;;;;5095500;28;20205;-32
2022/11/05 04:42:49;;;;;;;7.63;5.57;;;8.50;99.90;;;;;;5085941;28;20966;-32
2022/11/05 04:45:18;;;;;;;9.50;5.90;;;8.50;99.90;;;;;;5090852;28;20202;-32
2022/11/05 04:47:45;;;;;;;12.00;7.20;;;8.50;99.90;;;;;;5087938;28;20604;-32
2022/11/05 04:50:15;;;;;;;14.23;7.10;;;8.50;99.90;;;;;;5083483;28;20677;-32
2022/11/05 04:52:42;;;;;;;10.17;6.43;;;8.40;99.90;;;;;;5095870;28;20220;-32
2022/11/05 04:55:09;;;;;;;10.53;6.67;;;8.40;99.90;;;;;;5093487;28;20615;-33
2022/11/05 04:57:36;;;;;;;9.30;6.67;;;8.40;99.90;;;;;;5094710;28;20190;-33
2022/11/05 05:00:06;;;;;;;15.13;7.87;;;8.40;99.90;;;;;;5093011;28;20198;-33
2022/11/05 05:02:35;;;;;;;12.47;6.87;;;8.40;99.90;;;;;;5097411;28;20237;-33
2022/11/05 05:05:02;;;;;;;13.53;7.37;;;8.30;99.90;;;;;;5092502;28;20194;-33
2022/11/05 05:07:30;;;;;;;13.43;7.57;;;8.30;99.90;;;;;;5094641;28;20190;-32
2022/11/05 05:09:57;;;;;;;12.30;7.13;;;8.30;99.90;;;;;;5094738;28;20205;-33
2022/11/05 05:12:24;;;;;;;12.13;7.90;;;8.30;99.90;;;;;;5083605;28;20214;-33
2022/11/05 05:14:54;;;;;;;12.53;8.10;;;8.30;99.90;;;;;;5098108;28;20678;-33
2022/11/05 05:17:21;;;;;;;13.07;7.90;;;8.30;99.90;;;;;;5095380;28;20633;-33
2022/11/05 05:22:35;;;;;;;13.53;8.20;;;8.30;99.90;;;;;;5091464;28;20677;-33
2022/11/05 05:25:03;;;;;;;12.97;7.83;;;8.30;99.90;;;;;;5087261;28;20205;-33
2022/11/05 05:27:30;;;;;;;12.43;7.73;;;8.30;99.90;;;;;;5094748;28;20211;-33
2022/11/05 05:29:58;;;;;;;14.03;8.50;;;8.30;99.90;;;;;;5098132;28;20631;-33
2022/11/05 05:32:28;;;;;;;12.90;8.13;;;8.30;99.90;;;;;;5086218;28;20203;-33
2022/11/05 05:34:55;;;;;;;15.27;7.97;;;8.30;99.90;;;;;;5102561;28;20211;-32
2022/11/05 05:37:22;;;;;;;12.47;8.50;;;8.20;99.90;;;;;;5096042;28;20567;-33
2022/11/05 05:39:49;;;;;;;15.60;8.13;;;8.20;99.90;;;;;;5098692;28;20230;-32
2022/11/05 05:42:16;;;;;;;15.20;8.80;;;8.20;99.90;;;;;;5095625;28;20225;-33
2022/11/05 05:44:43;;;;;;;13.80;8.30;;;8.20;99.90;;;;;;5094406;28;20202;-33
2022/11/05 05:47:12;;;;;;;13.33;9.30;;;8.20;99.90;;;;;;5105598;28;20680;-33
2022/11/05 05:49:39;;;;;;;14.23;8.93;;;8.20;99.90;;;;;;5085229;28;20187;-33
2022/11/05 05:52:06;;;;;;;13.67;9.27;;;8.20;99.90;;;;;;5081566;28;20206;-33
2022/11/05 05:54:33;;;;;;;15.63;9.13;;;8.20;99.90;;;;;;5099109;28;20762;-33
2022/11/05 05:57:08;;;;;;;13.20;8.70;;;8.10;99.90;;;;;;5105093;28;20221;-33
2022/11/05 05:59:35;;;;;;;14.53;8.90;;;8.10;99.90;;;;;;5100066;28;20212;-32
2022/11/05 06:02:04;;;;;;;16.27;9.30;;;8.10;99.90;;;;;;5096747;28;20254;-32
2022/11/05 06:04:32;;;;;;;15.23;9.30;;;8.10;99.90;;;;;;5087056;28;20203;-32
2022/11/05 06:06:59;;;;;;;16.00;8.57;;;8.10;99.90;;;;;;5086204;28;20195;-32
2022/11/05 06:09:28;;;;;;;14.87;9.10;;;8.10;99.90;;;;;;5095443;28;20203;-31
2022/11/05 06:11:55;;;;;;;14.63;8.97;;;8.10;99.90;;;;;;5087484;28;20225;-32
2022/11/05 06:14:22;;;;;;;18.27;9.40;;;8.00;99.90;;;;;;5086101;28;20218;-32
2022/11/05 06:16:50;;;;;;;12.97;9.03;;;8.00;99.90;;;;;;5101105;28;20681;-32
2022/11/05 06:19:17;;;;;;;17.30;9.07;;;8.00;99.90;;;;;;5098164;28;20208;-32
2022/11/05 06:21:44;;;;;;;19.27;9.90;;;8.00;99.90;;;;;;5093526;28;20708;-32
2022/11/05 06:24:12;;;;;;;15.27;9.40;;;8.00;99.90;;;;;;5087920;28;20194;-32
2022/11/05 06:26:41;;;;;;;14.13;9.47;;;8.00;99.90;;;;;;5095109;28;20189;-31
2022/11/05 06:29:09;;;;;;;18.50;10.23;;;7.90;99.90;;;;;;5094940;28;20767;-31
2022/11/05 06:31:36;;;;;;;13.70;8.53;;;7.90;99.90;;;;;;5097369;28;20249;-32
2022/11/05 06:34:05;;;;;;;17.80;9.77;;;7.90;99.90;;;;;;5098612;28;20701;-32
2022/11/05 06:36:33;;;;;;;19.20;10.80;;;7.90;99.90;;;;;;5085366;28;20241;-32
2022/11/05 06:39:04;;;;;;;17.83;8.93;;;7.90;99.90;;;;;;5101406;28;20256;-32
2022/11/05 06:41:33;;;;;;;16.80;8.93;;;7.90;99.90;;;;;;5085378;28;20212;-33
2022/11/05 06:44:21;;;;;;;19.63;10.20;;;7.90;99.90;;;;;;5084332;28;20547;-32
2022/11/05 06:46:48;;;;;;;19.43;9.73;;;7.90;99.90;;;;;;5090634;28;20206;-32
2022/11/05 06:49:17;;;;;;;19.23;8.83;;;7.90;99.90;;;;;;5110933;27;20215;-31
2022/11/05 06:51:44;;;;;;;13.00;8.53;;;7.90;99.90;;;;;;5095153;27;20202;-32
2022/11/05 06:54:12;;;;;;;16.33;8.70;;;7.90;99.90;;;;;;5095073;28;20217;-32
2022/11/05 06:56:39;;;;;;;19.87;9.73;;;7.90;99.90;;;;;;5089406;28;20680;-31
2022/11/05 06:59:07;;;;;;;15.80;8.97;;;7.90;99.90;;;;;;5085521;28;20210;-32
2022/11/05 07:01:37;;;;;;;15.77;9.30;;;7.90;99.90;;;;;;5100992;28;20225;-32
2022/11/05 07:04:04;;;;;;;14.00;9.37;;;7.90;99.90;;;;;;5093451;28;20226;-32
2022/11/05 07:06:34;;;;;;;14.90;9.90;;;7.90;99.90;;;;;;5085055;28;20195;-33
2022/11/05 07:09:05;;;;;;;16.00;9.40;;;7.90;99.90;;;;;;5085376;28;20909;-32
2022/11/05 07:11:32;;;;;;;14.60;8.60;;;7.90;99.90;;;;;;5105043;28;20220;-32
2022/11/05 07:14:00;;;;;;;17.93;9.50;;;7.90;99.90;;;;;;5095326;28;20244;-32
2022/11/05 07:16:27;;;;;;;12.70;8.30;;;7.90;99.90;;;;;;5105486;28;20238;-32
2022/11/05 07:18:56;;;;;;;14.03;9.27;;;8.00;99.90;;;;;;5083597;28;20215;-32
2022/11/05 07:21:23;;;;;;;14.63;8.97;;;7.90;99.90;;;;;;5085558;28;20239;-32
2022/11/05 07:23:50;;;;;;;14.47;8.60;;;8.00;99.90;;;;;;5096818;28;20229;-32
2022/11/05 07:26:17;;;;;;;20.53;8.83;;;8.00;99.90;;;;;;5088717;28;20279;-31
2022/11/05 07:28:45;;;;;;;16.70;9.20;;;8.00;99.90;;;;;;5097724;28;20289;-32
2022/11/05 07:31:12;;;;;;;16.40;9.47;;;8.00;99.90;;;;;;5101616;28;20206;-31
2022/11/05 07:33:39;;;;;;;18.77;9.20;;;8.00;99.90;;;;;;5104327;28;20194;-31
2022/11/05 07:36:09;;;;;;;17.77;9.50;;;8.00;99.90;;;;;;5088923;28;20198;-31
2022/11/05 07:38:36;;;;;;;18.00;9.07;;;8.00;99.90;;;;;;5092953;28;20215;-32
2022/11/05 07:41:03;;;;;;;19.50;8.87;;;8.10;99.90;;;;;;5087003;28;20206;-32
2022/11/05 07:43:31;;;;;;;15.57;8.40;;;8.10;99.90;;;;;;5086668;28;20219;-32
2022/11/05 07:45:58;;;;;;;13.67;8.50;;;8.10;99.90;;;;;;5085589;28;20293;-32
2022/11/05 07:48:25;;;;;;;20.43;9.47;;;8.10;99.90;;;;;;5096567;28;20658;-33
2022/11/05 07:50:52;;;;;;;14.43;8.83;;;8.10;99.90;;;;;;5084547;28;20376;-31
2022/11/05 07:53:22;;;;;;;18.93;9.20;;;8.20;99.90;;;;;;5103589;28;20221;-32
2022/11/05 07:55:51;;;;;;;14.63;8.57;;;8.20;99.90;;;;;;5097870;28;20229;-32
2022/11/05 07:58:18;;;;;;;22.13;8.50;;;8.20;99.90;;;;;;5092613;28;20203;-32
2022/11/05 08:00:45;;;;;;;37.03;10.87;;;8.20;99.90;;;;;;5084756;28;20445;-31
2022/11/05 08:03:14;;;;;;;23.83;8.90;;;8.30;99.90;;;;;;5085080;28;20764;-32
2022/11/05 08:05:45;;;;;;;17.50;8.10;;;8.30;99.90;;;;;;5099599;28;20762;-32
2022/11/05 08:08:17;;;;;;;14.13;8.00;;;8.30;99.90;;;;;;5096250;28;20693;-32
2022/11/05 08:10:45;;;;;;;10.77;7.37;;;8.40;99.90;;;;;;5094201;28;20205;-32
2022/11/05 08:13:15;;;;;;;11.70;8.20;;;8.40;99.90;;;;;;5087053;28;20214;-32
2022/11/05 08:15:43;;;;;;;13.33;8.30;;;8.40;99.90;;;;;;5092119;28;20748;-32
2022/11/05 08:18:16;;;;;;;13.97;8.17;;;8.40;99.90;;;;;;5094730;28;20260;-32
2022/11/05 08:20:45;;;;;;;16.43;8.73;;;8.50;99.90;;;;;;5089464;28;20246;-33
2022/11/05 08:23:13;;;;;;;16.70;8.23;;;8.50;99.90;;;;;;5083904;28;20218;-33
2022/11/05 08:25:41;;;;;;;15.37;8.17;;;8.50;99.90;;;;;;5088362;28;20198;-32
2022/11/05 08:28:11;;;;;;;14.47;8.37;;;8.60;99.90;;;;;;5098419;28;20221;-33
2022/11/05 08:30:39;;;;;;;13.83;7.80;;;8.60;99.90;;;;;;5093568;28;20195;-33
2022/11/05 08:33:09;;;;;;;16.27;7.93;;;8.70;99.90;;;;;;5099430;28;20498;-31
2022/11/05 08:35:38;;;;;;;15.30;8.17;;;8.70;99.90;;;;;;5090304;28;20218;-27
2022/11/05 08:38:07;;;;;;;24.90;8.53;;;8.70;99.90;;;;;;5094077;28;20257;-33
2022/11/05 08:40:37;;;;;;;14.00;8.27;;;8.80;99.90;;;;;;5088031;28;20198;-19
2022/11/05 08:43:06;;;;;;;15.60;9.00;;;8.90;99.90;;;;;;5099770;28;21042;-22
2022/11/05 08:49:39;;;;;;;9.20;7.80;;;9.20;99.90;;;;;;5062127;28;21158;-26
2022/11/05 08:52:06;;;;;;;10.37;7.40;;;9.30;99.90;;;;;;5061415;28;20200;-26
2022/11/05 08:54:38;;;;;;;9.87;7.10;;;9.40;99.90;;;;;;5054967;28;20576;-37
2022/11/05 08:57:05;;;;;;;12.90;8.00;;;9.50;99.90;;;;;;5046978;28;20708;-33
2022/11/05 08:59:34;;;;;;;14.50;7.60;;;9.60;99.90;;;;;;5047059;28;20222;-33
2022/11/05 09:02:01;;;;;;;16.60;8.53;;;9.70;99.90;;;;;;5056316;28;20207;-30
2022/11/05 09:04:29;;;;;;;12.73;7.97;;;9.70;99.90;;;;;;5061250;28;20952;-31
2022/11/05 09:06:56;;;;;;;12.53;6.77;;;9.80;99.90;;;;;;5035436;28;20829;-31
2022/11/05 09:09:26;;;;;;;10.73;7.23;;;9.90;99.90;;;;;;5048961;28;20242;-31
2022/11/05 09:11:53;;;;;;;11.07;7.10;;;9.90;99.90;;;;;;5044555;28;20212;-31
2022/11/05 09:14:40;;;;;;;17.60;7.93;;;10.00;99.90;;;;;;5054168;28;20200;-31
2022/11/05 09:17:18;;;;;;;15.33;7.40;;;10.00;99.90;;;;;;5049305;28;20227;-30
2022/11/05 09:19:45;;;;;;;15.57;7.47;;;10.00;99.90;;;;;;5058766;28;20253;-31
2022/11/05 09:22:13;;;;;;;11.60;7.07;;;10.10;99.90;;;;;;5057708;28;20200;-31
2022/11/05 09:24:41;;;;;;;11.87;6.77;;;10.10;99.90;;;;;;5048862;28;20606;-30
2022/11/05 09:27:13;;;;;;;9.67;7.23;;;10.20;99.90;;;;;;5047982;28;20206;-30
2022/11/05 09:29:41;;;;;;;12.87;6.90;;;10.20;99.90;;;;;;5046367;28;20262;-33
2022/11/05 09:32:08;;;;;;;8.27;6.63;;;10.20;99.90;;;;;;5055052;28;20306;-30
2022/11/05 09:34:35;;;;;;;8.17;6.33;;;10.20;99.90;;;;;;5050660;28;20203;-30
2022/11/05 09:37:02;;;;;;;9.20;6.50;;;10.30;99.90;;;;;;5039457;28;20725;-30
2022/11/05 09:39:30;;;;;;;12.43;6.73;;;10.30;99.90;;;;;;5044994;28;20200;-30
2022/11/05 09:42:05;;;;;;;11.10;6.00;;;10.40;99.90;;;;;;5053748;28;20549;-30
2022/11/05 09:44:41;;;;;;;11.47;6.60;;;10.50;99.90;;;;;;5037363;28;20203;-30
2022/11/05 09:47:17;;;;;;;28.53;8.43;;;10.60;99.90;;;;;;5040469;28;20200;-30
2022/11/05 09:49:49;;;;;;;19.00;7.33;;;10.60;99.90;;;;;;5045953;28;20612;-30
2022/11/05 09:52:22;;;;;;;15.30;6.70;;;10.60;99.90;;;;;;5033792;28;20271;-30
2022/11/05 09:54:50;;;;;;;14.10;6.70;;;10.70;99.90;;;;;;5053182;28;20707;-30
2022/11/05 09:57:42;;;;;;;12.90;5.83;;;10.70;99.90;;;;;;5045612;28;20772;-30
2022/11/05 10:00:16;;;;;;;11.00;5.67;;;10.80;99.90;;;;;;5028099;28;20208;-30
2022/11/05 10:02:55;;;;;;;6.93;5.33;;;10.90;99.90;;;;;;5017169;28;20692;-30
2022/11/05 10:05:24;;;;;;;7.67;5.17;;;10.90;99.90;;;;;;5014634;28;20703;-29
2022/11/05 10:08:44;;;;;;;8.63;5.60;;;11.00;99.90;;;;;;5019078;28;20221;-29
2022/11/05 10:11:22;;;;;;;8.57;5.20;;;11.10;99.90;;;;;;4992322;28;20547;-29
2022/11/05 10:14:19;;;;;;;8.93;5.87;;;11.10;99.90;;;;;;5030672;28;20208;-29
2022/11/05 10:16:58;;;;;;;14.10;5.73;;;11.20;99.90;;;;;;5030232;28;20571;-29
2022/11/05 10:19:35;;;;;;;12.20;4.90;;;11.20;99.90;;;;;;5028778;28;20569;-29
2022/11/05 10:22:17;;;;;;;11.60;5.53;;;11.30;99.90;;;;;;5015253;28;20209;-29
2022/11/05 10:24:50;;;;;;;8.63;5.30;;;11.30;99.90;;;;;;5025386;28;20198;-29
2022/11/05 10:27:24;;;;;;;23.93;7.07;;;11.30;99.90;;;;;;5036538;28;20200;-29
2022/11/05 10:29:56;;;;;;;12.63;5.77;;;11.40;99.90;;;;;;5029746;28;20282;-29
2022/11/05 10:32:34;;;;;;;8.93;5.00;;;11.50;99.90;;;;;;5028231;28;20208;-29
2022/11/05 10:35:04;;;;;;;10.53;5.17;;;11.50;99.90;;;;;;5018853;28;20285;-29
2022/11/05 10:37:32;;;;;;;11.00;4.63;;;11.60;99.90;;;;;;5019921;28;20628;-29
2022/11/05 10:40:12;;;;;;;10.53;5.37;;;11.70;99.90;;;;;;5024242;28;20217;-29
2022/11/05 10:43:06;;;;;;;8.73;4.70;;;11.70;99.90;;;;;;5023090;28;20193;-29
2022/11/05 10:45:57;;;;;;;10.73;5.00;;;11.80;99.90;;;;;;5021193;28;20228;-29
2022/11/05 10:48:38;;;;;;;7.97;4.27;;;11.80;99.90;;;;;;5031970;28;20228;-29
2022/11/05 10:51:10;;;;;;;7.77;4.60;;;11.90;99.90;;;;;;5033465;28;20675;-29
2022/11/05 10:53:38;;;;;;;8.57;4.20;;;11.90;99.90;;;;;;5018399;28;20202;-29
2022/11/05 10:56:35;;;;;;;6.20;4.47;;;11.90;99.90;;;;;;5025459;28;20207;-29
2022/11/05 10:59:05;;;;;;;9.10;4.27;;;12.00;99.90;;;;;;5042698;28;20224;-29
2022/11/05 11:01:38;;;;;;;6.87;4.10;;;12.00;99.90;;;;;;5043917;28;20299;-29
2022/11/05 11:04:21;;;;;;;5.87;3.83;;;12.00;99.90;;;;;;5030743;28;20649;-29
2022/11/05 11:06:52;;;;;;;8.50;4.03;;;12.00;99.90;;;;;;5024995;28;20208;-29
2022/11/05 11:09:23;;;;;;;7.30;4.27;;;12.10;99.90;;;;;;5017091;28;20585;-33
2022/11/05 11:12:15;;;;;;;19.00;4.27;;;12.10;99.90;;;;;;5002742;28;20694;-32
2022/11/05 11:15:01;;;;;;;14.40;5.03;;;12.20;99.90;;;;;;5028555;28;20208;-30
2022/11/05 11:17:30;;;;;;;9.73;4.00;;;12.30;99.90;;;;;;5033915;28;20267;-30
2022/11/05 11:20:23;;;;;;;8.57;3.80;;;12.30;99.90;;;;;;5023593;28;20220;-30
2022/11/05 11:23:08;;;;;;;6.07;3.30;;;12.40;99.90;;;;;;5040595;28;20197;-30
2022/11/05 11:26:11;;;;;;;7.30;3.83;;;12.50;99.90;;;;;;5037796;28;20311;-30
2022/11/05 11:29:06;;;;;;;7.30;4.13;;;12.50;99.90;;;;;;5007895;28;20246;-31
2022/11/05 11:31:39;;;;;;;6.00;3.13;;;12.60;99.90;;;;;;5029307;28;20207;-31
2022/11/05 11:34:22;;;;;;;4.13;3.07;;;12.70;99.90;;;;;;5021844;28;20213;-31
2022/11/05 11:36:53;;;;;;;6.97;3.63;;;12.80;99.90;;;;;;5028758;28;20201;-31
2022/11/05 11:39:26;;;;;;;7.07;3.60;;;12.80;99.90;;;;;;5042287;28;20679;-31
2022/11/05 11:42:02;;;;;;;7.13;3.70;;;12.90;99.90;;;;;;5029912;28;20528;-30
2022/11/05 11:44:35;;;;;;;4.77;3.20;;;12.90;99.90;;;;;;5025268;28;20215;-31
2022/11/05 11:47:08;;;;;;;8.53;3.43;;;13.00;99.90;;;;;;5016084;28;20201;-31
2022/11/05 11:49:44;;;;;;;5.80;3.40;;;13.00;99.90;;;;;;5035806;28;20238;-31
2022/11/05 11:52:32;;;;;;;5.33;3.27;;;13.00;99.90;;;;;;5034924;28;20207;-30
2022/11/05 11:55:17;;;;;;;6.23;3.27;;;13.10;99.90;;;;;;5033789;28;20201;-31
2022/11/05 11:57:48;;;;;;;4.90;3.30;;;13.10;99.90;;;;;;5038299;28;20723;-31
2022/11/05 12:00:16;;;;;;;4.63;3.47;;;13.10;99.90;;;;;;5035627;28;20207;-31
2022/11/05 12:02:59;;;;;;;5.70;3.80;;;13.10;99.90;;;;;;5024560;28;20204;-30
2022/11/05 12:05:40;;;;;;;7.47;3.47;;;13.10;99.90;;;;;;5017250;28;20304;-31
2022/11/05 12:08:33;;;;;;;4.33;2.57;;;13.20;99.90;;;;;;5029419;28;20255;-31
2022/11/05 12:11:17;;;;;;;5.77;2.83;;;13.20;99.90;;;;;;5034565;28;20196;-31
2022/11/05 12:14:16;;;;;;;5.97;2.83;;;13.20;99.90;;;;;;5029558;28;20208;-30
2022/11/05 12:17:07;;;;;;;9.27;3.50;;;13.30;99.90;;;;;;5016807;28;20205;-30
2022/11/05 12:19:46;;;;;;;6.83;2.73;;;13.30;99.90;;;;;;5007891;28;20197;-31
2022/11/05 12:22:46;;;;;;;2.87;2.20;;;13.30;99.90;;;;;;5035711;28;20645;-31
2022/11/05 12:25:20;;;;;;;4.97;2.67;;;13.40;99.90;;;;;;5037323;28;20216;-30
2022/11/05 12:27:50;;;;;;;7.63;3.00;;;13.40;99.90;;;;;;5025915;28;20206;-30
2022/11/05 12:30:20;;;;;;;4.20;2.40;;;13.50;99.90;;;;;;5025941;28;20565;-30
2022/11/05 12:33:03;;;;;;;7.80;3.73;;;13.50;99.90;;;;;;5039037;28;20310;-30
2022/11/05 12:36:12;;;;;;;7.13;3.10;;;13.60;99.90;;;;;;5015872;28;20203;-30
2022/11/05 12:39:03;;;;;;;5.47;2.53;;;13.60;99.90;;;;;;5019748;28;20637;-30
2022/11/05 12:42:03;;;;;;;7.10;3.30;;;13.60;99.90;;;;;;5026262;28;20205;-30
2022/11/05 12:44:44;;;;;;;6.70;2.80;;;13.60;99.90;;;;;;5003144;28;20302;-30
2022/11/05 12:47:40;;;;;;;6.00;3.07;;;13.70;99.90;;;;;;5040604;28;20298;-30
2022/11/05 12:50:26;;;;;;;5.73;2.90;;;13.70;99.90;;;;;;5019385;28;20252;-30
2022/11/05 12:53:11;;;;;;;6.87;2.60;;;13.80;99.90;;;;;;5015457;28;20196;-30
2022/11/05 12:55:45;;;;;;;4.60;2.43;;;13.80;99.90;;;;;;5017275;28;20271;-30
2022/11/05 12:58:26;;;;;;;6.00;2.50;;;13.80;99.90;;;;;;5008837;28;20237;-30
2022/11/05 13:01:10;;;;;;;6.13;2.70;;;13.90;99.90;;;;;;5018659;28;20239;-30
2022/11/05 13:03:46;;;;;;;7.90;2.57;;;13.90;99.90;;;;;;5013066;28;20209;-31
2022/11/05 13:06:27;;;;;;;8.20;3.07;;;13.90;99.90;;;;;;5026413;28;20192;-30
2022/11/05 13:09:01;;;;;;;6.50;3.47;;;13.90;99.90;;;;;;5015968;28;20225;-30
2022/11/05 13:11:38;;;;;;;6.00;3.40;;;14.00;99.90;;;;;;5028247;28;20654;-30
2022/11/05 13:14:46;;;;;;;6.70;3.10;;;14.00;99.90;;;;;;5025926;28;20738;-30
2022/11/05 13:17:23;;;;;;;8.40;3.00;;;14.00;99.90;;;;;;5023054;28;20213;-30
2022/11/05 13:19:56;;;;;;;5.77;2.37;;;14.00;99.90;;;;;;5020653;28;20287;-31
2022/11/05 13:22:37;;;;;;;4.23;2.27;;;14.10;99.90;;;;;;5039532;28;20757;-30
2022/11/05 13:25:12;;;;;;;6.47;2.60;;;14.10;99.90;;;;;;5030584;28;20217;-31
2022/11/05 13:28:04;;;;;;;7.77;3.10;;;14.10;99.90;;;;;;5003523;28;20201;-31
2022/11/05 13:30:36;;;;;;;5.70;2.73;;;14.20;99.90;;;;;;5019896;28;20310;-31
2022/11/05 13:33:09;;;;;;;6.30;2.70;;;14.10;99.90;;;;;;5028732;28;20193;-31
2022/11/05 13:38:57;;;;;;;4.77;2.50;;;14.10;99.90;;;;;;5022023;28;20223;-31
2022/11/05 13:39:01;;;;;;;4.50;2.33;;;14.10;99.90;;;;;;5026268;28;20223;-31
2022/11/05 13:41:40;;;;;;;5.20;2.27;;;14.10;99.90;;;;;;5034044;28;20218;-30
2022/11/05 13:44:21;;;;;;;4.10;2.33;;;14.10;99.90;;;;;;5022647;28;20711;-30
2022/11/05 13:47:27;;;;;;;5.63;2.60;;;14.20;99.90;;;;;;5027366;28;20189;-30
2022/11/05 13:50:36;;;;;;;4.53;2.40;;;14.20;99.90;;;;;;4996537;28;20229;-31
2022/11/05 13:53:09;;;;;;;4.00;2.50;;;14.20;99.90;;;;;;5023903;28;20217;-31
2022/11/05 13:55:55;;;;;;;6.83;2.80;;;14.20;99.90;;;;;;5032291;28;20208;-31
2022/11/05 13:58:51;;;;;;;5.07;3.00;;;14.30;99.90;;;;;;5041076;28;20207;-31
2022/11/05 14:01:23;;;;;;;4.90;2.40;;;14.30;99.90;;;;;;5008367;28;20587;-30
2022/11/05 14:03:53;;;;;;;4.63;2.73;;;14.30;99.90;;;;;;5025422;28;20240;-31
2022/11/05 14:06:32;;;;;;;4.60;2.50;;;14.30;99.90;;;;;;5023833;28;20212;-30
2022/11/05 14:09:07;;;;;;;5.40;2.77;;;14.30;99.90;;;;;;5028317;28;20563;-31
2022/11/05 14:11:39;;;;;;;6.67;3.00;;;14.40;99.90;;;;;;5028662;28;20208;-31
2022/11/05 14:14:16;;;;;;;4.47;2.63;;;14.40;99.90;;;;;;5025897;28;20212;-31